createdAt,value
2023-05-04T00:00:02.636Z,101539.91
2023-05-04T00:02:29.326Z,101530.34
2023-05-04T00:04:55.809Z,101530.06
2023-05-04T00:07:22.269Z,101530.47
2023-05-04T00:09:52.087Z,101532.34
2023-05-04T00:12:19.223Z,101522.56
2023-05-04T00:14:45.589Z,101528.63
2023-05-04T00:17:12.723Z,101520.94
2023-05-04T00:19:41.983Z,101523.22
2023-05-04T00:22:08.647Z,101526.34
2023-05-04T00:24:35.205Z,101527.53
2023-05-04T00:27:02.369Z,101530.00
2023-05-04T00:29:29.113Z,101519.75
2023-05-04T00:31:55.752Z,101524.75
2023-05-04T00:34:22.697Z,101521.72
2023-05-04T00:36:49.107Z,101522.06
2023-05-04T00:39:15.478Z,101516.97
2023-05-04T00:41:41.903Z,101512.69
2023-05-04T00:44:08.410Z,101517.53
2023-05-04T00:46:36.766Z,101507.97
2023-05-04T00:49:03.779Z,101514.47
2023-05-04T00:51:30.834Z,101505.38
2023-05-04T00:53:58.161Z,101499.03
2023-05-04T00:56:25.340Z,101500.44
2023-05-04T00:58:55.228Z,101493.41
2023-05-04T01:01:22.521Z,101496.69
2023-05-04T01:03:51.306Z,101497.56
2023-05-04T01:06:36.324Z,101489.88
2023-05-04T01:09:26.284Z,101495.72
2023-05-04T01:12:04.702Z,101492.50
2023-05-04T01:14:31.341Z,101500.91
2023-05-04T01:16:59.268Z,101499.38
2023-05-04T01:19:28.155Z,101501.25
2023-05-04T01:21:54.948Z,101506.09
2023-05-04T01:24:21.480Z,101498.22
2023-05-04T01:26:53.749Z,101503.03
2023-05-04T01:29:31.859Z,101501.69
2023-05-04T01:32:00.086Z,101494.84
2023-05-04T01:34:26.574Z,101492.69
2023-05-04T01:36:53.742Z,101495.75
2023-05-04T01:39:20.453Z,101499.72
2023-05-04T01:41:46.903Z,101501.09
2023-05-04T01:44:13.329Z,101494.97
2023-05-04T01:46:40.068Z,101500.44
2023-05-04T01:49:07.930Z,101500.44
2023-05-04T01:51:34.338Z,101499.22
2023-05-04T01:54:00.978Z,101507.28
2023-05-04T01:56:27.472Z,101505.56
2023-05-04T01:58:53.920Z,101496.31
2023-05-04T02:01:20.361Z,101494.59
2023-05-04T02:03:46.888Z,101489.50
2023-05-04T02:06:13.397Z,101489.84
2023-05-04T02:08:39.818Z,101495.00
2023-05-04T02:11:06.253Z,101490.75
2023-05-04T02:13:32.676Z,101488.53
2023-05-04T02:15:59.116Z,101479.84
2023-05-04T02:18:25.617Z,101490.09
2023-05-04T02:20:52.084Z,101484.13
2023-05-04T02:23:18.549Z,101486.19
2023-05-04T02:25:44.953Z,101486.38
2023-05-04T02:28:11.368Z,101485.50
2023-05-04T02:30:37.910Z,101486.56
2023-05-04T02:33:04.623Z,101487.59
2023-05-04T02:35:31.233Z,101489.66
2023-05-04T02:37:57.626Z,101481.78
2023-05-04T02:40:24.058Z,101483.84
2023-05-04T02:42:50.446Z,101478.53
2023-05-04T02:45:16.962Z,101484.88
2023-05-04T02:47:43.423Z,101484.88
2023-05-04T02:50:10.031Z,101501.69
2023-05-04T02:52:36.450Z,101481.84
2023-05-04T02:55:03.355Z,101489.38
2023-05-04T02:57:29.813Z,101485.25
2023-05-04T02:59:56.364Z,101487.34
2023-05-04T03:02:22.868Z,101491.09
2023-05-04T03:04:49.321Z,101483.91
2023-05-04T03:07:15.700Z,101486.00
2023-05-04T03:09:42.122Z,101487.88
2023-05-04T03:12:08.552Z,101496.25
2023-05-04T03:14:34.962Z,101488.38
2023-05-04T03:17:01.460Z,101480.38
2023-05-04T03:19:27.816Z,101486.00
2023-05-04T03:21:54.331Z,101488.09
2023-05-04T03:24:20.749Z,101475.22
2023-05-04T03:26:47.654Z,101487.03
2023-05-04T03:29:14.145Z,101482.25
2023-05-04T03:31:40.670Z,101479.31
2023-05-04T03:34:07.210Z,101469.41
2023-05-04T03:36:33.621Z,101481.41
2023-05-04T03:39:00.056Z,101478.47
2023-05-04T03:41:26.526Z,101471.47
2023-05-04T03:43:52.915Z,101464.09
2023-05-04T03:46:19.462Z,101464.09
2023-05-04T03:48:45.969Z,101460.34
2023-05-04T03:51:12.443Z,101462.59
2023-05-04T03:53:38.887Z,101455.56
2023-05-04T03:56:05.505Z,101450.94
2023-05-04T03:58:31.908Z,101462.75
2023-05-04T04:00:58.334Z,101452.66
2023-05-04T04:03:25.009Z,101458.13
2023-05-04T04:05:51.731Z,101453.50
2023-05-04T04:08:18.234Z,101444.28
2023-05-04T04:10:44.701Z,101447.69
2023-05-04T04:13:11.178Z,101451.09
2023-05-04T04:15:37.806Z,101444.41
2023-05-04T04:18:04.414Z,101446.63
2023-05-04T04:20:30.982Z,101448.16
2023-05-04T04:22:57.369Z,101449.00
2023-05-04T04:25:24.380Z,101456.88
2023-05-04T04:27:51.272Z,101456.50
2023-05-04T04:30:17.883Z,101463.50
2023-05-04T04:32:44.434Z,101466.94
2023-05-04T04:35:11.077Z,101460.22
2023-05-04T04:37:37.457Z,101460.91
2023-05-04T04:40:04.524Z,101464.81
2023-05-04T04:42:32.216Z,101470.78
2023-05-04T04:44:58.645Z,101467.53
2023-05-04T04:47:25.545Z,101470.09
2023-05-04T04:49:52.048Z,101473.50
2023-05-04T04:52:18.480Z,101462.38
2023-05-04T04:54:45.323Z,101460.13
2023-05-04T04:57:11.733Z,101465.22
2023-05-04T04:59:38.171Z,101461.09
2023-05-04T05:02:04.680Z,101465.84
2023-05-04T05:04:31.243Z,101463.81
2023-05-04T05:06:57.706Z,101468.53
2023-05-04T05:09:24.534Z,101463.34
2023-05-04T05:11:50.990Z,101465.38
2023-05-04T05:14:17.367Z,101462.09
2023-05-04T05:16:43.836Z,101469.59
2023-05-04T05:19:10.237Z,101469.06
2023-05-04T05:21:36.720Z,101468.31
2023-05-04T05:24:03.275Z,101468.63
2023-05-04T05:26:30.462Z,101470.63
2023-05-04T05:28:56.964Z,101470.59
2023-05-04T05:31:23.445Z,101468.63
2023-05-04T05:33:50.665Z,101467.72
2023-05-04T05:36:17.073Z,101464.00
2023-05-04T05:38:43.509Z,101473.03
2023-05-04T05:41:10.013Z,101473.59
2023-05-04T05:43:38.486Z,101475.22
2023-05-04T05:46:06.512Z,101469.28
2023-05-04T05:48:33.482Z,101466.06
2023-05-04T05:51:00.025Z,101470.91
2023-05-04T05:53:26.708Z,101467.47
2023-05-04T05:55:53.101Z,101470.41
2023-05-04T05:58:19.477Z,101453.03
2023-05-04T06:00:46.260Z,101458.66
2023-05-04T06:03:12.741Z,101452.88
2023-05-04T06:05:39.247Z,101452.16
2023-05-04T06:08:05.674Z,101448.47
2023-05-04T06:10:32.189Z,101450.56
2023-05-04T06:12:58.658Z,101440.50
2023-05-04T06:15:25.070Z,101439.56
2023-05-04T06:17:51.497Z,101443.47
2023-05-04T06:20:18.131Z,101440.78
2023-05-04T06:22:44.511Z,101435.13
2023-05-04T06:25:11.536Z,101428.59
2023-05-04T06:27:37.931Z,101418.91
2023-05-04T06:30:05.410Z,101421.69
2023-05-04T06:32:32.171Z,101413.50
2023-05-04T06:34:59.451Z,101419.28
2023-05-04T06:37:26.714Z,101416.75
2023-05-04T06:39:54.486Z,101421.00
2023-05-04T06:42:21.065Z,101421.03
2023-05-04T06:44:47.749Z,101424.69
2023-05-04T06:47:15.604Z,101424.44
2023-05-04T06:49:41.984Z,101420.03
2023-05-04T06:52:08.427Z,101428.56
2023-05-04T06:54:34.857Z,101417.97
2023-05-04T06:57:03.303Z,101422.69
2023-05-04T06:59:29.668Z,101424.00
2023-05-04T07:01:56.404Z,101412.13
2023-05-04T07:04:23.438Z,101411.28
2023-05-04T07:06:50.927Z,101418.72
2023-05-04T07:09:18.864Z,101420.22
2023-05-04T07:11:45.955Z,101418.31
2023-05-04T07:14:12.372Z,101412.38
2023-05-04T07:16:38.925Z,101413.00
2023-05-04T07:19:05.361Z,101415.78
2023-05-04T07:21:31.940Z,101411.56
2023-05-04T07:23:58.384Z,101414.50
2023-05-04T07:26:25.115Z,101404.72
2023-05-04T07:28:51.613Z,101404.09
2023-05-04T07:31:18.056Z,101400.66
2023-05-04T07:33:44.494Z,101389.81
2023-05-04T07:36:10.958Z,101394.69
2023-05-04T07:38:37.537Z,101399.38
2023-05-04T07:41:04.006Z,101387.41
2023-05-04T07:43:30.473Z,101392.28
2023-05-04T07:45:57.061Z,101387.97
2023-05-04T07:48:26.062Z,101387.13
2023-05-04T07:50:53.669Z,101390.06
2023-05-04T07:53:20.851Z,101380.66
2023-05-04T07:55:48.336Z,101382.13
2023-05-04T07:58:16.413Z,101380.22
2023-05-04T08:00:42.889Z,101378.47
2023-05-04T08:03:09.568Z,101380.13
2023-05-04T08:05:36.007Z,101377.28
2023-05-04T08:08:02.765Z,101375.06
2023-05-04T08:10:29.214Z,101371.19
2023-05-04T08:12:55.637Z,101359.13
2023-05-04T08:15:22.210Z,101365.25
2023-05-04T08:17:48.733Z,101353.00
2023-05-04T08:20:15.297Z,101362.16
2023-05-04T08:22:41.730Z,101358.38
2023-05-04T08:25:09.472Z,101368.63
2023-05-04T08:27:35.936Z,101363.09
2023-05-04T08:30:02.490Z,101345.88
2023-05-04T08:32:29.993Z,101346.13
2023-05-04T08:34:58.254Z,101340.59
2023-05-04T08:37:24.767Z,101337.53
2023-05-04T08:39:51.261Z,101341.84
2023-05-04T08:42:31.779Z,101340.47
2023-05-04T08:44:59.072Z,101342.66
2023-05-04T08:47:27.308Z,101341.97
2023-05-04T08:49:55.331Z,101338.28
2023-05-04T08:52:26.711Z,101339.59
2023-05-04T08:54:55.675Z,101338.53
2023-05-04T08:57:26.001Z,101332.66
2023-05-04T08:59:54.577Z,101335.31
2023-05-04T09:02:22.624Z,101326.53
2023-05-04T09:04:53.438Z,101315.09
2023-05-04T09:07:21.647Z,101312.91
2023-05-04T09:09:50.866Z,101314.16
2023-05-04T09:12:18.159Z,101305.81
2023-05-04T09:14:44.866Z,101301.66
2023-05-04T09:17:17.593Z,101297.16
2023-05-04T09:19:44.321Z,101296.25
2023-05-04T09:22:15.773Z,101290.78
2023-05-04T09:24:42.247Z,101290.41
2023-05-04T09:27:13.379Z,101278.69
2023-05-04T09:29:42.438Z,101280.72
2023-05-04T09:32:15.817Z,101285.97
2023-05-04T09:34:52.073Z,101283.63
2023-05-04T09:37:22.474Z,101273.34
2023-05-04T09:39:53.813Z,101276.03
2023-05-04T09:42:21.395Z,101271.13
2023-05-04T09:44:59.178Z,101265.66
2023-05-04T09:47:36.776Z,101259.22
2023-05-04T09:50:12.624Z,101271.09
2023-05-04T09:52:40.935Z,101257.78
2023-05-04T09:55:08.572Z,101259.66
2023-05-04T09:57:35.940Z,101241.97
2023-05-04T10:00:04.538Z,101244.34
2023-05-04T10:02:32.252Z,101242.78
2023-05-04T10:05:00.659Z,101232.84
2023-05-04T10:07:31.293Z,101224.28
2023-05-04T10:09:59.773Z,101231.34
2023-05-04T10:12:26.446Z,101230.25
2023-05-04T10:14:53.464Z,101223.31
2023-05-04T10:17:32.091Z,101208.59
2023-05-04T10:20:29.038Z,101196.03
2023-05-04T10:23:26.376Z,101199.69
2023-05-04T10:26:20.309Z,101187.72
2023-05-04T10:28:59.538Z,101187.41
2023-05-04T10:31:36.313Z,101182.72
2023-05-04T10:34:02.811Z,101169.03
2023-05-04T10:36:39.713Z,101160.09
2023-05-04T10:39:24.252Z,101166.03
2023-05-04T10:42:04.342Z,101153.47
2023-05-04T10:44:35.878Z,101142.91
2023-05-04T10:47:07.160Z,101151.31
2023-05-04T10:49:34.981Z,101144.03
2023-05-04T10:52:13.474Z,101142.88
2023-05-04T10:54:41.112Z,101132.81
2023-05-04T10:57:13.462Z,101128.91
2023-05-04T10:59:41.282Z,101131.16
2023-05-04T11:02:08.146Z,101117.13
2023-05-04T11:04:36.240Z,101115.97
2023-05-04T11:07:05.454Z,101118.16
2023-05-04T11:09:39.508Z,101112.47
2023-05-04T11:12:07.385Z,101106.34
2023-05-04T11:14:37.793Z,101097.06
2023-05-04T11:17:27.420Z,101094.19
2023-05-04T11:19:54.603Z,101088.38
2023-05-04T11:22:21.292Z,101082.19
2023-05-04T11:24:51.453Z,101075.09
2023-05-04T11:27:35.796Z,101071.34
2023-05-04T11:30:04.476Z,101063.84
2023-05-04T11:32:46.654Z,101052.25
2023-05-04T11:35:18.928Z,101053.78
2023-05-04T11:37:47.082Z,101034.22
2023-05-04T11:40:22.360Z,101035.50
2023-05-04T11:42:50.090Z,101028.94
2023-05-04T11:45:21.462Z,101015.16
2023-05-04T11:47:48.840Z,101015.06
2023-05-04T11:50:17.289Z,101016.34
2023-05-04T11:52:44.510Z,101012.47
2023-05-04T11:55:13.285Z,101005.88
2023-05-04T11:57:40.298Z,101014.38
2023-05-04T12:00:08.456Z,101004.59
2023-05-04T12:02:35.804Z,100995.41
2023-05-04T12:05:03.272Z,100999.44
2023-05-04T12:07:29.808Z,100993.88
2023-05-04T12:09:56.266Z,100984.44
2023-05-04T12:12:22.689Z,100980.09
2023-05-04T12:14:53.557Z,100989.19
2023-05-04T12:17:20.570Z,100978.63
2023-05-04T12:19:50.518Z,100981.56
2023-05-04T12:22:18.185Z,100971.03
2023-05-04T12:24:44.604Z,100963.31
2023-05-04T12:27:14.772Z,100973.22
2023-05-04T12:29:41.342Z,100961.63
2023-05-04T12:32:08.241Z,100954.50
2023-05-04T12:34:37.826Z,100955.47
2023-05-04T12:37:04.314Z,100966.22
2023-05-04T12:39:32.536Z,100952.44
2023-05-04T12:41:59.602Z,100948.88
2023-05-04T12:44:26.552Z,100934.03
2023-05-04T12:46:54.427Z,100933.81
2023-05-04T12:49:21.517Z,100934.03
2023-05-04T12:51:51.091Z,100927.97
2023-05-04T12:54:18.142Z,100930.19
2023-05-04T12:56:44.531Z,100930.72
2023-05-04T12:59:10.954Z,100934.25
2023-05-04T13:01:37.495Z,100934.25
2023-05-04T13:04:04.032Z,100937.00
2023-05-04T13:06:30.547Z,100941.47
2023-05-04T13:08:57.221Z,100930.16
2023-05-04T13:11:24.917Z,100929.13
2023-05-04T13:13:52.756Z,100929.94
2023-05-04T13:16:19.166Z,100932.09
2023-05-04T13:18:45.528Z,100927.50
2023-05-04T13:21:13.312Z,100917.16
2023-05-04T13:23:39.746Z,100930.44
2023-05-04T13:26:06.617Z,100923.28
2023-05-04T13:28:33.035Z,100909.66
2023-05-04T13:30:59.667Z,100910.97
2023-05-04T13:33:30.018Z,100905.66
2023-05-04T13:35:58.330Z,100907.34
2023-05-04T13:38:25.143Z,100913.38
2023-05-04T13:40:51.727Z,100900.03
2023-05-04T13:43:18.179Z,100897.63
2023-05-04T13:45:44.593Z,100889.47
2023-05-04T13:48:11.098Z,100883.66
2023-05-04T13:50:37.649Z,100873.44
2023-05-04T13:53:04.287Z,100868.59
2023-05-04T13:55:30.702Z,100868.34
2023-05-04T13:57:57.101Z,100861.59
2023-05-04T14:00:23.490Z,100869.69
2023-05-04T14:02:50.010Z,100861.03
2023-05-04T14:05:16.662Z,100855.38
2023-05-04T14:07:43.179Z,100848.44
2023-05-04T14:10:09.951Z,100844.75
2023-05-04T14:12:36.393Z,100845.91
2023-05-04T14:15:04.306Z,100842.94
2023-05-04T14:17:30.816Z,100846.28
2023-05-04T14:19:58.769Z,100841.03
2023-05-04T14:22:25.220Z,100834.50
2023-05-04T14:24:51.702Z,100845.69
2023-05-04T14:27:18.109Z,100849.72
2023-05-04T14:29:46.464Z,100843.59
2023-05-04T14:32:14.157Z,100842.94
2023-05-04T14:34:40.816Z,100836.31
2023-05-04T14:37:07.189Z,100827.28
2023-05-04T14:39:33.602Z,100821.94
2023-05-04T14:41:59.969Z,100814.53
2023-05-04T14:44:28.634Z,100809.59
2023-05-04T14:46:55.581Z,100819.69
2023-05-04T14:49:35.615Z,100801.47
2023-05-04T14:52:03.723Z,100814.38
2023-05-04T14:54:30.254Z,100790.88
2023-05-04T14:56:56.635Z,100775.09
2023-05-04T14:59:23.116Z,100764.03
2023-05-04T15:01:50.156Z,100767.84
2023-05-04T15:04:17.169Z,100760.84
2023-05-04T15:06:43.587Z,100765.38
2023-05-04T15:09:09.972Z,100767.75
2023-05-04T15:11:36.692Z,100765.41
2023-05-04T15:14:03.401Z,100763.81
2023-05-04T15:16:32.386Z,100761.22
2023-05-04T15:18:59.444Z,100764.38
2023-05-04T15:21:26.292Z,100754.41
2023-05-04T15:23:52.721Z,100755.75
2023-05-04T15:26:19.331Z,100749.75
2023-05-04T15:28:45.729Z,100758.44
2023-05-04T15:31:13.024Z,100748.22
2023-05-04T15:33:39.458Z,100740.75
2023-05-04T15:36:07.885Z,100754.03
2023-05-04T15:38:34.707Z,100746.53
2023-05-04T15:41:01.195Z,100750.88
2023-05-04T15:43:27.577Z,100746.53
2023-05-04T15:45:54.170Z,100738.38
2023-05-04T15:48:20.702Z,100742.91
2023-05-04T15:50:47.091Z,100736.41
2023-05-04T15:53:13.697Z,100734.09
2023-05-04T15:55:40.429Z,100722.50
2023-05-04T15:58:07.280Z,100725.50
2023-05-04T16:00:34.476Z,100729.28
2023-05-04T16:03:01.378Z,100731.31
2023-05-04T16:05:27.904Z,100739.50
2023-05-04T16:07:54.781Z,100727.00
2023-05-04T16:10:22.176Z,100726.00
2023-05-04T16:12:48.751Z,100728.66
2023-05-04T16:15:15.338Z,100723.53
2023-05-04T16:17:41.920Z,100723.69
2023-05-04T16:20:09.109Z,100717.19
2023-05-04T16:22:35.926Z,100726.84
2023-05-04T16:25:02.525Z,100719.41
2023-05-04T16:27:29.028Z,100724.09
2023-05-04T16:29:55.922Z,100714.47
2023-05-04T16:32:22.507Z,100725.91
2023-05-04T16:34:48.970Z,100711.78
2023-05-04T16:37:17.348Z,100704.41
2023-05-04T16:39:43.761Z,100709.00
2023-05-04T16:42:10.335Z,100716.50
2023-05-04T16:44:36.798Z,100719.47
2023-05-04T16:47:03.310Z,100716.66
2023-05-04T16:49:29.980Z,100709.97
2023-05-04T16:51:56.380Z,100701.81
2023-05-04T16:54:24.053Z,100688.75
2023-05-04T16:56:50.942Z,100689.97
2023-05-04T16:59:17.432Z,100687.56
2023-05-04T17:01:44.137Z,100685.97
2023-05-04T17:04:10.880Z,100692.59
2023-05-04T17:06:37.707Z,100697.94
2023-05-04T17:09:05.000Z,100699.63
2023-05-04T17:11:31.838Z,100702.81
2023-05-04T17:13:59.243Z,100716.16
2023-05-04T17:16:25.684Z,100716.78
2023-05-04T17:18:52.137Z,100715.59
2023-05-04T17:21:18.526Z,100717.84
2023-05-04T17:23:44.929Z,100719.13
2023-05-04T17:26:11.355Z,100726.38
2023-05-04T17:28:37.841Z,100722.09
2023-05-04T17:31:04.272Z,100725.72
2023-05-04T17:33:30.874Z,100735.22
2023-05-04T17:35:57.361Z,100736.13
2023-05-04T17:38:23.846Z,100737.34
2023-05-04T17:40:50.450Z,100721.50
2023-05-04T17:43:16.859Z,100725.81
2023-05-04T17:45:43.343Z,100731.84
2023-05-04T17:48:09.830Z,100730.56
2023-05-04T17:50:36.264Z,100725.63
2023-05-04T17:53:02.709Z,100729.66
2023-05-04T17:55:29.075Z,100729.72
2023-05-04T17:57:55.534Z,100728.16
2023-05-04T18:00:22.242Z,100731.03
2023-05-04T18:02:48.726Z,100733.91
2023-05-04T18:05:15.350Z,100739.91
2023-05-04T18:07:41.805Z,100740.28
2023-05-04T18:10:08.773Z,100738.72
2023-05-04T18:12:38.319Z,100742.66
2023-05-04T18:15:08.104Z,100742.22
2023-05-04T18:17:35.806Z,100742.59
2023-05-04T18:20:02.371Z,100746.38
2023-05-04T18:22:28.846Z,100750.38
2023-05-04T18:24:55.528Z,100745.97
2023-05-04T18:27:22.241Z,100741.88
2023-05-04T18:29:48.761Z,100756.34
2023-05-04T18:32:15.297Z,100746.91
2023-05-04T18:34:42.031Z,100754.97
2023-05-04T18:37:08.429Z,100757.91
2023-05-04T18:39:34.910Z,100757.19
2023-05-04T18:42:01.805Z,100761.28
2023-05-04T18:44:28.299Z,100768.91
2023-05-04T18:46:54.713Z,100776.59
2023-05-04T18:49:21.158Z,100773.34
2023-05-04T18:51:47.597Z,100777.59
2023-05-04T18:54:15.461Z,100786.06
2023-05-04T18:56:41.910Z,100788.06
2023-05-04T18:59:08.627Z,100799.00
2023-05-04T19:01:35.216Z,100795.69
2023-05-04T19:04:01.763Z,100798.50
2023-05-04T19:06:28.341Z,100801.31
2023-05-04T19:08:55.006Z,100806.94
2023-05-04T19:11:21.639Z,100805.28
2023-05-04T19:13:49.852Z,100812.53
2023-05-04T19:16:16.585Z,100801.59
2023-05-04T19:18:43.920Z,100809.13
2023-05-04T19:21:10.331Z,100810.25
2023-05-04T19:23:36.704Z,100814.97
2023-05-04T19:26:04.288Z,100816.91
2023-05-04T19:28:30.777Z,100814.38
2023-05-04T19:30:57.438Z,100819.09
2023-05-04T19:33:30.376Z,100816.81
2023-05-04T19:36:03.242Z,100820.09
2023-05-04T19:38:30.214Z,100831.78
2023-05-04T19:40:56.604Z,100825.03
2023-05-04T19:43:22.960Z,100824.72
2023-05-04T19:45:49.750Z,100820.75
2023-05-04T19:48:17.490Z,100827.69
2023-05-04T19:50:44.370Z,100831.56
2023-05-04T19:53:11.285Z,100832.63
2023-05-04T19:55:37.663Z,100831.75
2023-05-04T19:58:04.070Z,100840.09
2023-05-04T20:00:30.932Z,100844.50
2023-05-04T20:02:57.824Z,100841.41
2023-05-04T20:05:24.385Z,100843.53
2023-05-04T20:07:51.010Z,100837.88
2023-05-04T20:10:17.471Z,100842.28
2023-05-04T20:12:43.997Z,100846.16
2023-05-04T20:15:10.765Z,100838.84
2023-05-04T20:17:37.201Z,100840.19
2023-05-04T20:20:04.170Z,100845.97
2023-05-04T20:22:30.759Z,100852.34
2023-05-04T20:24:57.184Z,100853.13
2023-05-04T20:27:23.731Z,100850.84
2023-05-04T20:29:50.250Z,100848.59
2023-05-04T20:32:17.029Z,100849.69
2023-05-04T20:34:44.892Z,100851.91
2023-05-04T20:37:11.318Z,100855.81
2023-05-04T20:39:37.760Z,100852.41
2023-05-04T20:42:05.609Z,100847.38
2023-05-04T20:44:32.138Z,100850.44
2023-05-04T20:46:58.622Z,100847.34
2023-05-04T20:49:25.010Z,100843.13
2023-05-04T20:51:51.518Z,100840.00
2023-05-04T20:54:18.347Z,100832.72
2023-05-04T20:56:44.751Z,100831.44
2023-05-04T20:59:11.153Z,100837.75
2023-05-04T21:01:37.658Z,100837.88
2023-05-04T21:04:04.297Z,100836.63
2023-05-04T21:06:31.213Z,100836.28
2023-05-04T21:08:57.628Z,100837.81
2023-05-04T21:11:24.035Z,100832.34
2023-05-04T21:13:50.506Z,100829.44
2023-05-04T21:16:16.958Z,100833.78
2023-05-04T21:18:45.216Z,100826.94
2023-05-04T21:21:11.699Z,100824.03
2023-05-04T21:23:38.104Z,100836.09
2023-05-04T21:26:05.805Z,100825.44
2023-05-04T21:28:32.385Z,100825.59
2023-05-04T21:30:59.047Z,100829.72
2023-05-04T21:33:25.541Z,100825.53
2023-05-04T21:35:51.987Z,100823.81
2023-05-04T21:38:20.320Z,100823.81
2023-05-04T21:40:48.351Z,100825.19
2023-05-04T21:43:14.759Z,100821.22
2023-05-04T21:45:41.165Z,100818.97
2023-05-04T21:48:08.178Z,100817.25
2023-05-04T21:50:34.645Z,100823.41
2023-05-04T21:53:01.064Z,100823.16
2023-05-04T21:55:28.766Z,100819.53
2023-05-04T21:57:56.098Z,100821.22
2023-05-04T22:00:24.172Z,100819.63
2023-05-04T22:02:53.600Z,100811.63
2023-05-04T22:05:22.185Z,100822.00
2023-05-04T22:07:48.951Z,100806.47
2023-05-04T22:10:15.382Z,100812.03
2023-05-04T22:12:41.798Z,100805.66
2023-05-04T22:15:10.223Z,100812.03
2023-05-04T22:17:37.007Z,100807.06
2023-05-04T22:20:03.809Z,100809.84
2023-05-04T22:22:31.371Z,100802.09
2023-05-04T22:24:57.784Z,100802.94
2023-05-04T22:27:24.204Z,100809.34
2023-05-04T22:29:50.682Z,100807.41
2023-05-04T22:32:17.072Z,100807.41
2023-05-04T22:34:43.505Z,100810.41
2023-05-04T22:37:09.940Z,100807.66
2023-05-04T22:39:36.372Z,100813.53
2023-05-04T22:42:02.872Z,100813.28
2023-05-04T22:44:29.650Z,100817.25
2023-05-04T22:46:56.084Z,100823.06
2023-05-04T22:49:22.659Z,100818.63
2023-05-04T22:51:49.061Z,100819.09
2023-05-04T22:54:15.492Z,100814.31
2023-05-04T22:56:41.996Z,100821.47
2023-05-04T22:59:08.467Z,100822.00
2023-05-04T23:01:34.959Z,100821.91
2023-05-04T23:04:01.505Z,100833.75
2023-05-04T23:06:28.701Z,100823.66
2023-05-04T23:08:55.140Z,100829.47
2023-05-04T23:11:22.086Z,100832.75
2023-05-04T23:13:48.518Z,100826.84
2023-05-04T23:16:14.977Z,100827.38
2023-05-04T23:18:41.395Z,100823.63
2023-05-04T23:21:07.910Z,100823.81
2023-05-04T23:23:34.601Z,100825.41
2023-05-04T23:26:01.135Z,100822.28
2023-05-04T23:28:27.642Z,100824.72
2023-05-04T23:30:55.722Z,100819.41
2023-05-04T23:33:22.245Z,100822.19
2023-05-04T23:35:48.670Z,100819.66
2023-05-04T23:38:15.028Z,100823.88
2023-05-04T23:40:41.749Z,100831.13
2023-05-04T23:43:08.114Z,100826.66
2023-05-04T23:45:34.538Z,100814.34
2023-05-04T23:48:00.975Z,100826.81
2023-05-04T23:50:27.425Z,100827.31
2023-05-04T23:52:53.798Z,100826.13
2023-05-04T23:55:20.462Z,100810.81
2023-05-04T23:57:46.883Z,100809.28
